San Agustin, Argentina
Current Conditions -  °F | °C
As of 9:00 PM on Friday 19 Dec 2014 (Local Time) from SAZM Reporting Station
Scattered Clouds Scattered Clouds  
Wind Chill: 68°   Ceiling: Unl
Heat Index: 68°   Visibility: 6mi
Dew Point: 55°   Wind: 3mph
Humidity: 64%   Direction: 50°NE
Pressure: 29.47"   Gusts: NA
Location:  38.02°S, 58.35°W
Report Text: SAZM 200000Z 05003KT 9999 FEW040CB SCT20020/13 Q0998
Loading
Personal Weather Stations






























Interactive Weather Map New forecast layout! Learn more

10-Day Weather Forecast

Advertisements
Track Severe Weather on mobile